Time;durP1;ratioP1;P1;durP2;ratioP2;P2;SDS_P1;SDS_P2;PMS_P1;PMS_P2;Temp;Humidity;BMP_temperature;BMP_pressure;BME280_temperature;BME280_humidity;BME280_pressure;Samples;Min_cycle;Max_cycle;Signal;HPM_P1;HPM_P2
2022/07/28 00:01:13;;;;;;;2.00;1.80;;;25.10;41.90;;;;;;5021484;28;20536;-46
2022/07/28 00:03:47;;;;;;;1.60;1.50;;;25.10;42.10;;;;;;5025956;28;20859;-48
2022/07/28 00:06:15;;;;;;;1.90;1.37;;;25.10;42.00;;;;;;5022083;28;20440;-49
2022/07/28 00:08:43;;;;;;;1.83;1.37;;;25.10;42.00;;;;;;5023211;28;20480;-48
2022/07/28 00:11:11;;;;;;;1.57;1.27;;;25.10;42.00;;;;;;5027971;28;20472;-47
2022/07/28 00:13:41;;;;;;;1.87;1.40;;;25.10;42.10;;;;;;5023215;28;20559;-46
2022/07/28 00:16:09;;;;;;;1.93;1.40;;;25.10;42.10;;;;;;5030919;28;20494;-49
2022/07/28 00:18:37;;;;;;;1.80;1.40;;;25.10;42.10;;;;;;5030717;28;20878;-48
2022/07/28 00:21:05;;;;;;;1.13;0.93;;;25.10;42.10;;;;;;5022323;28;20772;-48
2022/07/28 00:23:33;;;;;;;1.40;1.30;;;25.10;42.10;;;;;;5024452;28;20516;-48
2022/07/28 00:26:07;;;;;;;1.20;1.10;;;25.10;42.20;;;;;;5018954;28;21673;-46
2022/07/28 00:28:35;;;;;;;1.30;1.20;;;25.10;42.30;;;;;;5027618;28;21011;-48
2022/07/28 00:31:06;;;;;;;1.30;1.20;;;25.10;42.30;;;;;;5029624;28;20526;-49
2022/07/28 00:33:39;;;;;;;1.97;1.60;;;25.10;42.30;;;;;;5022835;28;20499;-48
2022/07/28 00:36:08;;;;;;;1.33;1.23;;;25.10;42.40;;;;;;5026941;28;20432;-48
2022/07/28 00:38:40;;;;;;;1.40;1.30;;;25.10;42.40;;;;;;5029767;28;20570;-46
2022/07/28 00:41:13;;;;;;;1.17;1.07;;;25.10;42.40;;;;;;5029214;28;20448;-48
2022/07/28 00:43:43;;;;;;;1.50;1.40;;;25.00;42.40;;;;;;5023250;28;20525;-47
2022/07/28 00:46:13;;;;;;;1.70;1.60;;;25.00;42.40;;;;;;5028663;28;20448;-50
2022/07/28 00:48:44;;;;;;;2.27;1.27;;;25.00;42.40;;;;;;5023333;28;21069;-49
2022/07/28 00:51:15;;;;;;;1.47;1.37;;;25.00;42.40;;;;;;5021418;28;20452;-47
2022/07/28 00:53:43;;;;;;;1.50;1.40;;;25.00;42.40;;;;;;5029768;28;20463;-48
2022/07/28 00:56:12;;;;;;;1.60;1.50;;;25.00;42.40;;;;;;5020267;28;20827;-49
2022/07/28 00:58:41;;;;;;;1.97;1.50;;;25.00;42.40;;;;;;5025920;28;20935;-48
2022/07/28 01:01:14;;;;;;;1.50;1.00;;;25.00;43.70;;;;;;5026911;28;20448;-47
2022/07/28 01:03:46;;;;;;;1.80;1.27;;;25.00;42.50;;;;;;5028202;28;20849;-48
2022/07/28 01:06:22;;;;;;;1.30;1.20;;;25.00;42.50;;;;;;5028188;28;20445;-49
2022/07/28 01:09:01;;;;;;;1.60;1.50;;;25.00;42.50;;;;;;5025502;28;20464;-49
2022/07/28 01:11:34;;;;;;;1.33;1.23;;;25.00;42.50;;;;;;5025509;28;20978;-50
2022/07/28 01:14:16;;;;;;;1.07;1.03;;;25.00;42.60;;;;;;5024142;28;20486;-48
2022/07/28 01:16:53;;;;;;;1.40;1.30;;;25.00;42.70;;;;;;5025641;28;20489;-47
2022/07/28 01:19:35;;;;;;;3.07;1.27;;;25.00;42.70;;;;;;5022435;28;20491;-48
2022/07/28 01:22:05;;;;;;;2.03;1.03;;;25.00;42.70;;;;;;5028097;28;20868;-48
2022/07/28 01:24:47;;;;;;;1.40;1.30;;;25.00;42.70;;;;;;5029007;28;21095;-48
2022/07/28 01:27:29;;;;;;;2.30;1.50;;;25.00;42.70;;;;;;5026869;28;20495;-47
2022/07/28 01:30:06;;;;;;;0.90;0.90;;;25.00;42.70;;;;;;5015703;28;20474;-48
2022/07/28 01:32:41;;;;;;;1.60;1.50;;;24.90;42.70;;;;;;5025486;28;20446;-49
2022/07/28 01:35:13;;;;;;;1.20;1.10;;;25.00;42.70;;;;;;5020031;28;20463;-47
2022/07/28 01:37:45;;;;;;;1.20;1.10;;;24.90;42.60;;;;;;5030458;28;21050;-47
2022/07/28 01:40:16;;;;;;;1.70;1.60;;;24.90;42.70;;;;;;5029878;28;20908;-48
2022/07/28 01:42:47;;;;;;;0.97;0.90;;;24.90;42.80;;;;;;5029646;28;20455;-49
2022/07/28 01:45:16;;;;;;;4.73;1.43;;;24.90;42.70;;;;;;5027979;28;20502;-47
2022/07/28 01:47:48;;;;;;;1.30;1.17;;;24.90;42.70;;;;;;5014509;28;20455;-49
2022/07/28 01:50:22;;;;;;;2.53;1.37;;;24.90;42.80;;;;;;5027368;28;20440;-49
2022/07/28 01:52:51;;;;;;;1.43;1.33;;;24.90;42.90;;;;;;5013560;28;20437;-50
2022/07/28 01:55:21;;;;;;;1.43;1.20;;;24.90;42.90;;;;;;5028366;28;20472;-48
2022/07/28 01:57:53;;;;;;;1.30;1.20;;;24.90;42.90;;;;;;5021251;28;21156;-48
2022/07/28 02:00:22;;;;;;;1.50;1.40;;;24.90;42.90;;;;;;5020641;28;20467;-47
2022/07/28 02:02:53;;;;;;;1.77;1.20;;;24.90;43.00;;;;;;5029541;28;20511;-48
2022/07/28 02:05:23;;;;;;;1.60;1.17;;;24.90;42.90;;;;;;5022193;28;20444;-48
2022/07/28 02:07:53;;;;;;;1.47;1.20;;;24.90;43.00;;;;;;5025574;28;20448;-48
2022/07/28 02:10:22;;;;;;;1.30;1.20;;;24.90;43.00;;;;;;5021907;28;20432;-49
2022/07/28 02:12:52;;;;;;;1.20;1.10;;;24.90;43.10;;;;;;5013563;28;20924;-49
2022/07/28 02:15:22;;;;;;;1.50;1.40;;;24.90;43.10;;;;;;5027346;28;20464;-49
2022/07/28 02:17:52;;;;;;;1.23;1.13;;;24.90;43.10;;;;;;5028821;28;20499;-49
2022/07/28 02:20:22;;;;;;;1.53;1.33;;;24.90;43.10;;;;;;5020564;28;20490;-48
2022/07/28 02:22:52;;;;;;;1.20;1.10;;;24.80;43.10;;;;;;5028381;28;20432;-46
2022/07/28 02:25:21;;;;;;;1.20;1.10;;;24.90;43.20;;;;;;5018990;28;20444;-50
2022/07/28 02:27:53;;;;;;;1.20;1.10;;;24.80;43.10;;;;;;5017272;28;20563;-47
2022/07/28 02:30:30;;;;;;;1.43;1.33;;;24.80;43.20;;;;;;5017519;28;20441;-49
2022/07/28 02:33:05;;;;;;;1.90;1.50;;;24.80;43.20;;;;;;5026624;28;20979;-46
2022/07/28 02:35:44;;;;;;;1.27;1.17;;;24.80;43.20;;;;;;5014995;28;20464;-48
2022/07/28 02:38:20;;;;;;;2.17;1.60;;;24.80;43.20;;;;;;5017725;28;20464;-47
2022/07/28 02:40:51;;;;;;;1.70;1.60;;;24.80;43.20;;;;;;5022030;28;20464;-47
2022/07/28 02:43:29;;;;;;;1.40;1.30;;;24.80;43.20;;;;;;5022338;28;20499;-50
2022/07/28 02:46:22;;;;;;;1.53;1.43;;;24.80;43.20;;;;;;5029691;28;20964;-48
2022/07/28 02:48:56;;;;;;;1.30;1.20;;;24.80;43.30;;;;;;5028271;28;20993;-47
2022/07/28 02:51:27;;;;;;;1.30;1.20;;;24.80;43.30;;;;;;5032094;28;20446;-48
2022/07/28 02:53:56;;;;;;;0.97;0.90;;;24.80;43.30;;;;;;5030859;28;20471;-48
2022/07/28 02:56:26;;;;;;;1.40;1.30;;;24.80;43.50;;;;;;5032794;28;20478;-47
2022/07/28 02:58:55;;;;;;;1.70;1.60;;;24.70;43.30;;;;;;5028059;28;20459;-47
2022/07/28 03:01:24;;;;;;;1.33;1.23;;;24.70;43.30;;;;;;5024499;28;20480;-50
2022/07/28 03:03:54;;;;;;;1.10;0.97;;;24.70;43.30;;;;;;5027676;28;20456;-50
2022/07/28 03:06:23;;;;;;;1.40;1.30;;;24.70;43.50;;;;;;5020923;28;20436;-47
2022/07/28 03:08:56;;;;;;;1.50;1.40;;;24.70;43.40;;;;;;5021984;28;20465;-49
2022/07/28 03:11:26;;;;;;;1.73;1.33;;;24.70;43.40;;;;;;5022548;28;20436;-47
2022/07/28 03:13:54;;;;;;;2.97;1.13;;;24.70;43.40;;;;;;5024265;28;20515;-49
2022/07/28 03:16:22;;;;;;;1.13;1.03;;;24.70;43.50;;;;;;5020158;28;20468;-48
2022/07/28 03:18:50;;;;;;;1.10;1.00;;;24.70;43.50;;;;;;5024410;28;20463;-48
2022/07/28 03:21:20;;;;;;;1.37;1.20;;;24.70;43.50;;;;;;5030914;28;20448;-46
2022/07/28 03:23:51;;;;;;;1.43;1.33;;;24.70;43.50;;;;;;5023818;28;20468;-49
2022/07/28 03:26:25;;;;;;;1.10;1.00;;;24.70;43.50;;;;;;5017273;28;20441;-48
2022/07/28 03:28:56;;;;;;;1.60;1.50;;;24.70;43.50;;;;;;5027807;28;21058;-47
2022/07/28 03:31:27;;;;;;;1.37;1.27;;;24.70;43.60;;;;;;5032410;28;20534;-49
2022/07/28 03:33:55;;;;;;;1.20;1.00;;;24.70;43.60;;;;;;5022811;28;21008;-47
2022/07/28 03:36:34;;;;;;;1.30;1.10;;;24.70;43.60;;;;;;5030281;28;20998;-47
2022/07/28 03:39:07;;;;;;;1.17;1.07;;;24.60;43.50;;;;;;5022480;28;20805;-48
2022/07/28 03:41:36;;;;;;;1.20;1.10;;;24.60;43.50;;;;;;5029405;28;20445;-47
2022/07/28 03:44:06;;;;;;;1.30;1.20;;;24.60;43.60;;;;;;5026834;28;20470;-50
2022/07/28 03:46:34;;;;;;;1.40;1.30;;;24.60;43.70;;;;;;5027253;28;20432;-50
2022/07/28 03:49:08;;;;;;;1.27;1.10;;;24.60;43.70;;;;;;5021813;28;20595;-48
2022/07/28 03:51:37;;;;;;;1.20;1.10;;;24.60;43.70;;;;;;5025942;28;20444;-49
2022/07/28 03:54:06;;;;;;;1.27;1.17;;;24.60;43.80;;;;;;5022917;28;20459;-46
2022/07/28 03:56:34;;;;;;;2.00;1.10;;;24.60;43.70;;;;;;5032235;28;20810;-48
2022/07/28 03:59:02;;;;;;;1.57;1.03;;;24.60;43.70;;;;;;5028690;28;20500;-51
2022/07/28 04:01:30;;;;;;;1.90;1.30;;;24.60;43.70;;;;;;5029138;28;20452;-48
2022/07/28 04:03:59;;;;;;;1.20;1.10;;;24.60;43.80;;;;;;5028892;28;20464;-48
2022/07/28 04:06:27;;;;;;;1.20;1.10;;;24.60;43.90;;;;;;5024908;28;20444;-47
2022/07/28 04:08:56;;;;;;;1.10;1.00;;;24.50;43.70;;;;;;5022939;28;20528;-49
2022/07/28 04:11:24;;;;;;;1.60;1.30;;;24.50;43.80;;;;;;5026734;28;20441;-50
2022/07/28 04:13:52;;;;;;;1.13;1.03;;;24.60;43.90;;;;;;5025444;28;20495;-50
2022/07/28 04:16:20;;;;;;;1.20;0.97;;;24.50;43.80;;;;;;5024129;28;20514;-51
2022/07/28 04:18:49;;;;;;;1.20;1.10;;;24.50;43.80;;;;;;5024030;28;20528;-48
2022/07/28 04:21:17;;;;;;;1.20;1.10;;;24.50;43.90;;;;;;5023372;28;20965;-47
2022/07/28 04:23:45;;;;;;;1.43;1.33;;;24.50;43.90;;;;;;5030352;28;20463;-48
2022/07/28 04:26:16;;;;;;;1.60;1.30;;;24.50;43.90;;;;;;5028804;28;20527;-48
2022/07/28 04:28:44;;;;;;;1.00;1.00;;;24.50;43.80;;;;;;5031469;28;20910;-50
2022/07/28 04:31:12;;;;;;;1.23;1.03;;;24.50;43.90;;;;;;5029575;28;21219;-52
2022/07/28 04:33:42;;;;;;;1.13;1.00;;;24.50;43.90;;;;;;5031167;28;20506;-49
2022/07/28 04:36:10;;;;;;;1.80;1.10;;;24.50;44.00;;;;;;5020857;28;20905;-48
2022/07/28 04:38:39;;;;;;;1.27;0.90;;;24.50;44.00;;;;;;5019761;28;20473;-49
2022/07/28 04:41:07;;;;;;;1.00;0.90;;;24.50;44.00;;;;;;5030038;28;20988;-48
2022/07/28 04:43:37;;;;;;;1.20;1.10;;;24.50;44.00;;;;;;5019171;28;20482;-48
2022/07/28 04:46:05;;;;;;;1.50;1.40;;;24.40;43.90;;;;;;5032175;28;20440;-49
2022/07/28 04:48:34;;;;;;;1.37;1.27;;;24.40;44.00;;;;;;5090075;23;20480;-48
2022/07/28 04:51:02;;;;;;;1.37;1.27;;;24.40;44.00;;;;;;5030347;28;20964;-48
2022/07/28 04:53:31;;;;;;;1.20;1.10;;;24.40;44.00;;;;;;5043180;28;20455;-48
2022/07/28 04:55:59;;;;;;;1.10;1.00;;;24.40;44.00;;;;;;5041607;28;20536;-47
2022/07/28 04:58:29;;;;;;;1.40;1.30;;;24.40;44.00;;;;;;5019443;28;20473;-48
2022/07/28 05:00:59;;;;;;;1.53;0.97;;;24.40;44.10;;;;;;4999003;28;20450;-48
2022/07/28 05:03:27;;;;;;;1.30;1.20;;;24.40;44.10;;;;;;5017114;28;20482;-48
2022/07/28 05:06:02;;;;;;;1.63;1.30;;;24.40;44.10;;;;;;5002066;28;20544;-48
2022/07/28 05:08:30;;;;;;;1.77;1.33;;;24.40;44.20;;;;;;5016007;28;20554;-48
2022/07/28 05:10:58;;;;;;;1.27;1.13;;;24.40;44.10;;;;;;5014752;28;20442;-48
2022/07/28 05:13:27;;;;;;;1.20;1.03;;;24.40;44.10;;;;;;5007351;28;20488;-47
2022/07/28 05:16:03;;;;;;;0.90;0.80;;;24.30;44.10;;;;;;5014183;28;20460;-48
2022/07/28 05:18:31;;;;;;;0.90;0.80;;;24.30;44.10;;;;;;5027713;28;20921;-48
2022/07/28 05:20:59;;;;;;;1.17;1.07;;;24.30;44.20;;;;;;5002190;28;20808;-48
2022/07/28 05:23:27;;;;;;;1.30;1.10;;;24.30;44.20;;;;;;5011694;28;20457;-48
2022/07/28 05:25:56;;;;;;;1.00;1.00;;;24.30;44.20;;;;;;4999623;28;20836;-48
2022/07/28 05:28:24;;;;;;;1.20;0.97;;;24.30;44.30;;;;;;4997620;28;20492;-48
2022/07/28 05:30:52;;;;;;;1.17;1.07;;;24.30;44.30;;;;;;5012105;28;20476;-48
2022/07/28 05:33:22;;;;;;;1.50;1.40;;;24.30;44.80;;;;;;5008796;28;20842;-48
2022/07/28 05:35:53;;;;;;;1.47;1.30;;;24.30;44.20;;;;;;5013456;28;20541;-48
2022/07/28 05:38:21;;;;;;;1.23;1.10;;;24.30;44.30;;;;;;5001646;28;20502;-48
2022/07/28 05:40:50;;;;;;;0.93;0.93;;;24.30;44.30;;;;;;5023388;28;20495;-48
2022/07/28 05:43:19;;;;;;;1.73;1.17;;;24.30;44.30;;;;;;4998147;28;20459;-48
2022/07/28 05:45:48;;;;;;;1.27;1.17;;;24.30;44.30;;;;;;5015647;28;20444;-48
2022/07/28 05:48:17;;;;;;;1.60;1.10;;;24.30;44.20;;;;;;5013894;28;20473;-48
2022/07/28 05:50:47;;;;;;;0.90;0.90;;;24.30;45.50;;;;;;5002633;28;20446;-48
2022/07/28 05:53:16;;;;;;;1.37;1.03;;;24.30;44.30;;;;;;5006048;28;20772;-48
2022/07/28 05:55:44;;;;;;;1.27;1.10;;;24.30;44.20;;;;;;5007411;28;20471;-48
2022/07/28 05:58:29;;;;;;;1.30;1.10;;;24.30;44.30;;;;;;5004942;28;20560;-48
2022/07/28 06:00:58;;;;;;;0.80;0.80;;;24.30;44.40;;;;;;5010177;28;20500;-48
2022/07/28 06:03:27;;;;;;;1.73;1.40;;;24.30;44.30;;;;;;5000709;28;20472;-48
2022/07/28 06:05:56;;;;;;;1.10;1.00;;;24.20;44.20;;;;;;4995126;28;20983;-48
2022/07/28 06:08:45;;;;;;;1.37;1.10;;;24.20;44.30;;;;;;5031658;28;20464;-48
2022/07/28 06:11:15;;;;;;;1.20;1.10;;;24.20;44.40;;;;;;5016849;28;20441;-47
2022/07/28 06:13:50;;;;;;;1.03;0.93;;;24.20;44.30;;;;;;5022374;28;20488;-48
2022/07/28 06:16:19;;;;;;;1.20;1.10;;;24.20;44.30;;;;;;5015960;28;20446;-48
2022/07/28 06:18:48;;;;;;;1.40;1.30;;;24.20;44.40;;;;;;5019754;28;20460;-47
2022/07/28 06:21:18;;;;;;;1.20;1.10;;;24.20;44.40;;;;;;5013831;28;20444;-48
2022/07/28 06:23:46;;;;;;;1.73;1.40;;;24.20;44.30;;;;;;5020351;28;20460;-48
2022/07/28 06:26:14;;;;;;;1.80;1.20;;;24.20;44.20;;;;;;5019471;28;20448;-47
2022/07/28 06:28:43;;;;;;;1.30;1.20;;;24.20;44.30;;;;;;5031738;28;20483;-48
2022/07/28 06:31:11;;;;;;;2.03;1.20;;;24.20;44.30;;;;;;5016541;28;20527;-48
2022/07/28 06:33:39;;;;;;;2.03;1.20;;;24.10;44.00;;;;;;5012616;28;20992;-48
2022/07/28 06:36:08;;;;;;;1.07;1.07;;;24.10;44.30;;;;;;5004576;28;20491;-48
2022/07/28 06:38:37;;;;;;;2.10;0.97;;;24.10;44.40;;;;;;5020452;28;20675;-48
2022/07/28 06:41:06;;;;;;;1.20;1.10;;;24.10;44.50;;;;;;5018554;28;20520;-48
2022/07/28 06:43:34;;;;;;;1.00;0.90;;;24.10;44.50;;;;;;5018217;28;20525;-48
2022/07/28 06:46:06;;;;;;;2.23;1.17;;;24.10;44.50;;;;;;4999444;28;20442;-48
2022/07/28 06:48:36;;;;;;;1.17;1.07;;;24.10;44.40;;;;;;5011141;28;20838;-48
2022/07/28 06:51:05;;;;;;;2.43;1.67;;;24.10;44.30;;;;;;5011495;28;20548;-48
2022/07/28 06:53:33;;;;;;;1.90;1.27;;;24.10;43.80;;;;;;5007201;28;21003;-49
2022/07/28 06:56:04;;;;;;;1.10;1.00;;;24.10;44.20;;;;;;5009463;28;20472;-49
2022/07/28 06:58:33;;;;;;;1.30;1.20;;;24.10;44.00;;;;;;5024595;28;20984;-48
2022/07/28 07:01:06;;;;;;;1.07;0.97;;;24.10;44.10;;;;;;5011434;28;20448;-49
2022/07/28 07:03:34;;;;;;;1.30;1.07;;;24.10;44.30;;;;;;5018605;28;20480;-49
2022/07/28 07:06:03;;;;;;;1.20;1.10;;;24.10;44.00;;;;;;5003860;28;20442;-49
2022/07/28 07:08:31;;;;;;;1.70;1.30;;;24.10;43.90;;;;;;5011513;28;20538;-48
2022/07/28 07:10:59;;;;;;;1.23;1.10;;;24.10;43.80;;;;;;5022018;28;20428;-48
2022/07/28 07:13:29;;;;;;;1.50;1.40;;;24.10;43.70;;;;;;5008459;28;20469;-48
2022/07/28 07:15:57;;;;;;;1.40;1.30;;;24.10;43.50;;;;;;5004843;28;20448;-48
2022/07/28 07:18:25;;;;;;;1.70;1.10;;;24.10;43.40;;;;;;5019252;28;20559;-48
2022/07/28 07:20:56;;;;;;;1.57;1.27;;;24.10;43.50;;;;;;5004271;28;20636;-48
2022/07/28 07:23:24;;;;;;;3.73;1.43;;;24.10;43.20;;;;;;5024934;28;20456;-48
2022/07/28 07:25:52;;;;;;;1.20;1.10;;;24.10;42.90;;;;;;5015146;28;21016;-49
2022/07/28 07:28:20;;;;;;;3.67;1.63;;;24.10;43.30;;;;;;5010583;28;20507;-48
2022/07/28 07:30:50;;;;;;;1.20;1.00;;;24.10;43.20;;;;;;5013987;28;20448;-48
2022/07/28 07:33:18;;;;;;;2.47;1.30;;;24.10;43.50;;;;;;5006143;28;20489;-48
2022/07/28 07:35:46;;;;;;;1.30;1.20;;;24.10;43.50;;;;;;5012793;28;20817;-48
2022/07/28 07:38:14;;;;;;;1.30;1.20;;;24.10;43.70;;;;;;5021684;28;21000;-48
2022/07/28 07:40:42;;;;;;;0.90;0.90;;;24.10;43.70;;;;;;5010346;28;20450;-48
2022/07/28 07:43:11;;;;;;;1.13;1.03;;;24.10;43.80;;;;;;5015839;28;20548;-47
2022/07/28 07:45:41;;;;;;;1.30;1.20;;;24.10;44.10;;;;;;5010921;28;20444;-49
2022/07/28 07:48:11;;;;;;;1.20;1.10;;;24.10;44.00;;;;;;5024119;28;21082;-47
2022/07/28 07:50:39;;;;;;;1.77;1.00;;;24.10;44.00;;;;;;5007701;28;20830;-48
2022/07/28 07:53:08;;;;;;;1.77;1.10;;;24.10;44.10;;;;;;5029082;28;20517;-48
2022/07/28 07:55:37;;;;;;;1.60;1.50;;;24.10;44.20;;;;;;5032974;28;20436;-48
2022/07/28 07:58:05;;;;;;;1.77;1.00;;;24.10;44.30;;;;;;5014731;28;20504;-48
2022/07/28 08:00:34;;;;;;;1.20;1.10;;;24.10;44.40;;;;;;5018853;28;20437;-48
2022/07/28 08:03:02;;;;;;;1.37;1.27;;;24.10;44.20;;;;;;5014382;28;20477;-48
2022/07/28 08:05:39;;;;;;;2.60;1.40;;;24.10;44.30;;;;;;5017989;28;20480;-48
2022/07/28 08:08:08;;;;;;;1.40;1.10;;;24.10;44.30;;;;;;5023915;28;20986;-49
2022/07/28 08:10:38;;;;;;;2.30;1.13;;;24.10;44.30;;;;;;5015025;28;20960;-48
2022/07/28 08:13:07;;;;;;;1.20;1.10;;;24.00;44.20;;;;;;5013494;28;20649;-48
2022/07/28 08:15:35;;;;;;;1.20;1.00;;;24.10;44.30;;;;;;5008142;28;20543;-49
2022/07/28 08:18:04;;;;;;;1.27;1.10;;;24.00;44.30;;;;;;5020313;28;20968;-48
2022/07/28 08:20:32;;;;;;;1.63;1.50;;;24.00;44.30;;;;;;5019241;28;20476;-48
2022/07/28 08:23:02;;;;;;;1.57;1.43;;;24.00;44.20;;;;;;5005006;28;20469;-48
2022/07/28 08:25:30;;;;;;;1.20;1.10;;;24.00;44.30;;;;;;5030372;28;20482;-48
2022/07/28 08:27:58;;;;;;;2.00;1.07;;;24.00;44.30;;;;;;5027455;28;21023;-48
2022/07/28 08:30:27;;;;;;;1.10;1.10;;;24.00;44.30;;;;;;5009980;28;20494;-48
2022/07/28 08:33:01;;;;;;;1.40;1.30;;;24.00;44.30;;;;;;5013135;28;20505;-48
2022/07/28 08:35:29;;;;;;;1.00;0.90;;;24.00;44.30;;;;;;5018743;28;20458;-48
2022/07/28 08:38:04;;;;;;;1.30;1.20;;;24.00;44.30;;;;;;5026072;28;20456;-48
2022/07/28 08:40:32;;;;;;;1.00;0.97;;;24.00;44.30;;;;;;5025884;28;20943;-48
2022/07/28 08:43:06;;;;;;;1.60;1.40;;;24.00;44.30;;;;;;5011627;28;20508;-48
2022/07/28 08:45:35;;;;;;;1.43;1.30;;;24.00;44.30;;;;;;5022304;28;20436;-48
2022/07/28 08:48:05;;;;;;;0.77;0.77;;;24.00;44.30;;;;;;5026495;28;20513;-48
2022/07/28 08:50:36;;;;;;;2.03;1.50;;;24.00;44.30;;;;;;5020780;28;20457;-49
2022/07/28 08:53:07;;;;;;;1.37;1.20;;;24.00;44.40;;;;;;5021905;28;20544;-48
2022/07/28 08:55:36;;;;;;;1.17;1.00;;;24.00;44.40;;;;;;5020847;28;20449;-48
2022/07/28 08:58:04;;;;;;;1.00;0.90;;;24.00;44.40;;;;;;5022909;28;20477;-47
2022/07/28 09:00:33;;;;;;;1.17;1.07;;;24.00;44.30;;;;;;5024996;28;20518;-49
2022/07/28 09:03:03;;;;;;;1.40;0.80;;;24.00;44.40;;;;;;5026913;28;20451;-48
2022/07/28 09:05:32;;;;;;;2.40;1.50;;;24.00;44.40;;;;;;5006683;28;20542;-48
2022/07/28 09:08:01;;;;;;;1.43;1.33;;;24.00;44.50;;;;;;5018045;28;20461;-48
2022/07/28 09:10:31;;;;;;;2.00;1.07;;;24.00;44.30;;;;;;5005978;28;20846;-49
2022/07/28 09:13:00;;;;;;;1.17;1.00;;;24.00;44.40;;;;;;5024793;28;20495;-48
2022/07/28 09:15:28;;;;;;;1.40;1.30;;;24.00;44.40;;;;;;5008151;28;20444;-49
2022/07/28 09:17:56;;;;;;;1.90;1.20;;;24.00;44.40;;;;;;5030212;28;20452;-48
2022/07/28 09:20:26;;;;;;;1.90;1.00;;;24.00;44.50;;;;;;5020678;28;20484;-48
2022/07/28 09:22:59;;;;;;;1.50;1.07;;;23.90;44.40;;;;;;5009214;28;20461;-48
2022/07/28 09:25:28;;;;;;;1.27;1.13;;;23.90;44.30;;;;;;5030332;28;20490;-47
2022/07/28 09:28:05;;;;;;;1.13;1.03;;;23.90;44.30;;;;;;5016688;28;20549;-48
2022/07/28 09:30:35;;;;;;;1.20;1.10;;;23.90;44.40;;;;;;4998539;28;20861;-48
2022/07/28 09:33:21;;;;;;;1.40;1.30;;;23.90;44.60;;;;;;5011329;28;20835;-48
2022/07/28 09:36:15;;;;;;;1.27;1.17;;;23.90;44.50;;;;;;4995299;28;20453;-48
2022/07/28 09:38:44;;;;;;;1.40;1.00;;;23.90;44.50;;;;;;5017672;28;20472;-47
2022/07/28 09:41:13;;;;;;;2.73;1.10;;;23.90;44.50;;;;;;5014302;28;20503;-48
2022/07/28 09:43:44;;;;;;;2.10;1.20;;;23.90;44.50;;;;;;5029303;28;20467;-49
2022/07/28 09:46:19;;;;;;;3.87;1.23;;;23.90;44.50;;;;;;4998165;28;20443;-48
2022/07/28 09:48:53;;;;;;;1.97;1.20;;;23.90;44.70;;;;;;5027979;28;20987;-49
2022/07/28 09:51:25;;;;;;;1.40;1.07;;;23.90;44.60;;;;;;4998782;28;20452;-48
2022/07/28 09:54:05;;;;;;;1.33;1.23;;;23.90;44.70;;;;;;5020578;28;20463;-48
2022/07/28 09:56:33;;;;;;;1.43;1.33;;;23.90;44.60;;;;;;5022577;28;20438;-48
2022/07/28 09:59:03;;;;;;;1.33;1.23;;;23.90;44.60;;;;;;5010268;28;20483;-49
2022/07/28 10:01:49;;;;;;;1.27;1.13;;;23.90;44.60;;;;;;5016406;28;20472;-48
2022/07/28 10:04:28;;;;;;;1.90;1.17;;;23.90;44.60;;;;;;5022961;28;20686;-48
2022/07/28 10:07:01;;;;;;;1.10;1.00;;;23.90;44.60;;;;;;5019558;28;20998;-48
2022/07/28 10:09:30;;;;;;;1.30;1.10;;;23.90;44.70;;;;;;5018975;28;20491;-49
2022/07/28 10:12:17;;;;;;;1.27;1.17;;;23.90;44.60;;;;;;5005262;28;20460;-48
2022/07/28 10:14:49;;;;;;;0.80;0.80;;;23.90;44.60;;;;;;5005631;28;20501;-48
2022/07/28 10:17:28;;;;;;;1.70;1.03;;;23.90;44.70;;;;;;5013519;28;20488;-48
2022/07/28 10:19:59;;;;;;;1.07;0.97;;;23.90;44.50;;;;;;5019231;28;21110;-48
2022/07/28 10:22:31;;;;;;;1.77;0.97;;;23.90;44.50;;;;;;5002514;28;20576;-48
2022/07/28 10:25:02;;;;;;;1.40;1.30;;;23.90;44.60;;;;;;5007345;28;20547;-47
2022/07/28 10:27:31;;;;;;;1.30;1.20;;;23.90;44.40;;;;;;5019763;28;20962;-47
2022/07/28 10:30:03;;;;;;;2.50;1.60;;;23.90;42.00;;;;;;5015761;28;20536;-47
2022/07/28 10:32:38;;;;;;;3.63;1.50;;;23.90;40.70;;;;;;5015768;28;20193;-48
2022/07/28 10:35:09;;;;;;;2.57;1.13;;;23.80;41.00;;;;;;5013700;28;20566;-48
2022/07/28 10:37:43;;;;;;;2.17;1.10;;;23.80;41.00;;;;;;5009518;28;20542;-48
2022/07/28 10:40:12;;;;;;;2.37;1.20;;;23.80;41.30;;;;;;5031299;28;20480;-47
2022/07/28 10:42:41;;;;;;;3.03;1.10;;;23.80;41.60;;;;;;5020450;28;20968;-48
2022/07/28 10:45:12;;;;;;;1.70;1.17;;;23.90;42.00;;;;;;5016813;28;20496;-49
2022/07/28 10:47:41;;;;;;;1.30;0.80;;;23.90;42.30;;;;;;5033468;28;21062;-48
2022/07/28 10:50:09;;;;;;;1.60;1.23;;;23.90;42.70;;;;;;5027376;28;20547;-48
2022/07/28 10:52:40;;;;;;;1.30;0.87;;;23.90;42.80;;;;;;5022357;28;20463;-48
2022/07/28 10:55:29;;;;;;;1.77;1.00;;;23.90;42.90;;;;;;5009351;28;20459;-47
2022/07/28 10:58:08;;;;;;;1.13;1.03;;;23.90;43.10;;;;;;5077179;22;21036;-46
2022/07/28 11:00:47;;;;;;;2.20;1.20;;;23.90;43.00;;;;;;5039221;28;20478;-49
2022/07/28 11:03:38;;;;;;;1.50;1.00;;;23.90;43.10;;;;;;5024975;28;20499;-48
2022/07/28 11:06:27;;;;;;;1.73;1.00;;;23.90;43.20;;;;;;5027874;28;20439;-49
2022/07/28 11:08:56;;;;;;;1.40;1.30;;;23.90;43.20;;;;;;5040617;28;20844;-48
2022/07/28 11:11:49;;;;;;;1.13;1.00;;;23.90;43.20;;;;;;5048800;28;20762;-48
2022/07/28 11:14:35;;;;;;;1.37;1.07;;;23.90;43.30;;;;;;5008792;28;20471;-47
2022/07/28 11:17:16;;;;;;;1.10;1.00;;;23.90;43.30;;;;;;5032499;28;20546;-48
2022/07/28 11:19:57;;;;;;;1.30;1.20;;;23.90;43.30;;;;;;5030504;28;20849;-51
2022/07/28 11:22:45;;;;;;;1.40;1.10;;;23.90;43.50;;;;;;5033832;28;20431;-48
2022/07/28 11:25:16;;;;;;;1.37;1.00;;;23.90;43.40;;;;;;5024675;28;20432;-48
2022/07/28 11:28:04;;;;;;;1.57;1.23;;;23.90;43.50;;;;;;5032047;28;20546;-48
2022/07/28 11:30:53;;;;;;;1.20;1.10;;;23.90;43.50;;;;;;5029582;28;20514;-48
2022/07/28 11:33:23;;;;;;;1.17;0.90;;;23.90;43.50;;;;;;5023564;28;20455;-50
2022/07/28 11:36:01;;;;;;;1.37;0.87;;;23.90;43.50;;;;;;5029173;28;20507;-48
2022/07/28 11:38:29;;;;;;;4.67;1.33;;;23.90;43.40;;;;;;5030612;28;20458;-47
2022/07/28 11:40:57;;;;;;;1.03;0.97;;;23.90;43.50;;;;;;5034522;28;20743;-48
2022/07/28 11:43:38;;;;;;;0.93;0.80;;;24.00;43.50;;;;;;5042605;28;20483;-48
2022/07/28 11:46:34;;;;;;;1.40;1.03;;;24.00;43.70;;;;;;5023482;28;20449;-47
2022/07/28 11:49:33;;;;;;;1.10;1.00;;;24.00;43.60;;;;;;5034221;28;20572;-47
2022/07/28 11:52:13;;;;;;;0.80;0.80;;;24.00;43.70;;;;;;4982131;28;20490;-50
2022/07/28 11:54:48;;;;;;;1.00;0.90;;;24.00;43.70;;;;;;5031146;28;20624;-47
2022/07/28 11:57:20;;;;;;;2.33;1.33;;;24.00;43.60;;;;;;5031806;28;20467;-47
2022/07/28 11:59:52;;;;;;;1.00;1.00;;;24.00;43.70;;;;;;5029166;28;20460;-49
2022/07/28 12:02:23;;;;;;;1.53;1.10;;;24.00;43.70;;;;;;5027977;28;20514;-49
2022/07/28 12:05:08;;;;;;;0.80;0.80;;;24.00;43.60;;;;;;5033249;28;20883;-49
2022/07/28 12:07:42;;;;;;;1.03;0.90;;;24.00;43.70;;;;;;5025102;28;20471;-48
2022/07/28 12:10:31;;;;;;;1.97;1.10;;;24.00;43.50;;;;;;5027572;28;20465;-46
2022/07/28 12:13:27;;;;;;;1.23;1.00;;;24.00;43.70;;;;;;5022314;28;20814;-48
2022/07/28 12:15:55;;;;;;;4.20;1.20;;;24.00;43.70;;;;;;5026900;28;20471;-48
2022/07/28 12:18:23;;;;;;;1.10;0.83;;;24.00;43.70;;;;;;5030838;28;20468;-47
2022/07/28 12:20:54;;;;;;;0.97;0.87;;;24.00;43.70;;;;;;5028789;28;20460;-50
2022/07/28 12:23:30;;;;;;;1.83;1.07;;;24.00;43.80;;;;;;5025998;28;20456;-47
2022/07/28 12:26:28;;;;;;;1.33;1.23;;;24.00;43.70;;;;;;5025724;28;20449;-48
2022/07/28 12:28:59;;;;;;;1.20;1.03;;;24.10;43.90;;;;;;5033294;28;20483;-50
2022/07/28 12:31:31;;;;;;;1.03;0.97;;;24.10;43.90;;;;;;5024657;28;20840;-48
2022/07/28 12:34:00;;;;;;;1.10;0.87;;;24.00;43.80;;;;;;5026335;28;20472;-47
2022/07/28 12:36:30;;;;;;;0.90;0.90;;;24.10;43.90;;;;;;5022199;28;20539;-48
2022/07/28 12:38:59;;;;;;;1.67;1.07;;;24.10;44.00;;;;;;5033597;28;20456;-46
2022/07/28 12:41:31;;;;;;;1.23;1.13;;;24.10;43.80;;;;;;5026411;28;20452;-48
2022/07/28 12:44:01;;;;;;;1.43;1.13;;;24.10;43.90;;;;;;5025672;28;20550;-48
2022/07/28 12:46:33;;;;;;;1.20;0.90;;;24.10;43.80;;;;;;5029821;28;20448;-50
2022/07/28 12:49:02;;;;;;;1.33;0.93;;;24.10;43.70;;;;;;5029446;28;20853;-47
2022/07/28 12:51:33;;;;;;;0.90;0.80;;;24.10;43.70;;;;;;5024351;28;20894;-47
2022/07/28 12:54:01;;;;;;;1.00;1.00;;;24.10;43.70;;;;;;5029297;28;20468;-48
2022/07/28 12:56:30;;;;;;;1.73;1.07;;;24.10;43.70;;;;;;5032237;28;20901;-47
2022/07/28 12:59:06;;;;;;;1.83;1.20;;;24.10;43.50;;;;;;5030825;28;20460;-50
2022/07/28 13:01:50;;;;;;;1.47;1.37;;;24.10;43.70;;;;;;5024839;28;20477;-47
2022/07/28 13:04:38;;;;;;;1.20;1.10;;;24.10;43.40;;;;;;5027853;28;20491;-48
2022/07/28 13:07:10;;;;;;;1.57;0.90;;;24.10;43.50;;;;;;5014583;28;20487;-49
2022/07/28 13:09:44;;;;;;;1.10;1.00;;;24.10;43.50;;;;;;5036921;28;20542;-48
2022/07/28 13:12:18;;;;;;;1.30;1.00;;;24.10;43.50;;;;;;5030054;28;20440;-47